sensor_id;sensor_type;location;lat;lon;timestamp;pressure;altitude;pressure_sealevel;temperature;humidity
61906;BME280;47863;55.766;37.672;2023-07-31T00:00:27;99084.97;;;16.72;63.06
61906;BME280;47863;55.766;37.672;2023-07-31T00:02:52;99054.75;;;16.50;63.14
61906;BME280;47863;55.766;37.672;2023-07-31T00:05:18;99062.00;;;16.56;63.13
61906;BME280;47863;55.766;37.672;2023-07-31T00:07:44;99089.56;;;16.64;63.05
61906;BME280;47863;55.766;37.672;2023-07-31T00:10:09;99083.97;;;16.66;63.20
61906;BME280;47863;55.766;37.672;2023-07-31T00:12:35;99093.53;;;16.69;63.23
61906;BME280;47863;55.766;37.672;2023-07-31T00:15:01;99078.22;;;16.56;63.14
61906;BME280;47863;55.766;37.672;2023-07-31T00:17:31;99095.38;;;16.68;63.20
61906;BME280;47863;55.766;37.672;2023-07-31T00:19:56;99091.03;;;16.67;63.19
61906;BME280;47863;55.766;37.672;2023-07-31T00:22:22;99098.94;;;16.69;63.01
61906;BME280;47863;55.766;37.672;2023-07-31T00:24:48;99094.34;;;16.69;63.12
61906;BME280;47863;55.766;37.672;2023-07-31T00:27:13;99094.16;;;16.71;62.98
61906;BME280;47863;55.766;37.672;2023-07-31T00:29:39;99088.75;;;16.64;62.92
61906;BME280;47863;55.766;37.672;2023-07-31T00:32:05;99095.38;;;16.68;63.32
61906;BME280;47863;55.766;37.672;2023-07-31T00:34:32;99084.69;;;16.55;63.26
61906;BME280;47863;55.766;37.672;2023-07-31T00:36:58;99088.97;;;16.62;63.15
61906;BME280;47863;55.766;37.672;2023-07-31T00:39:24;99076.16;;;16.51;63.50
61906;BME280;47863;55.766;37.672;2023-07-31T00:41:49;99094.22;;;16.57;63.26
61906;BME280;47863;55.766;37.672;2023-07-31T00:44:15;99087.19;;;16.50;63.29
61906;BME280;47863;55.766;37.672;2023-07-31T00:46:40;99096.09;;;16.57;63.50
61906;BME280;47863;55.766;37.672;2023-07-31T00:49:06;99090.28;;;16.53;63.58
61906;BME280;47863;55.766;37.672;2023-07-31T00:51:32;99086.75;;;16.53;63.65
61906;BME280;47863;55.766;37.672;2023-07-31T00:53:58;99089.69;;;16.51;63.69
61906;BME280;47863;55.766;37.672;2023-07-31T00:56:26;99077.47;;;16.42;63.63
61906;BME280;47863;55.766;37.672;2023-07-31T00:58:53;99085.31;;;16.50;63.61
61906;BME280;47863;55.766;37.672;2023-07-31T01:01:19;99055.69;;;16.30;63.55
61906;BME280;47863;55.766;37.672;2023-07-31T01:03:44;99056.91;;;16.34;63.58
61906;BME280;47863;55.766;37.672;2023-07-31T01:06:36;99093.22;;;16.52;63.65
61906;BME280;47863;55.766;37.672;2023-07-31T01:09:32;99087.59;;;16.53;63.66
61906;BME280;47863;55.766;37.672;2023-07-31T01:11:57;99079.13;;;16.43;63.55
61906;BME280;47863;55.766;37.672;2023-07-31T01:14:25;99087.41;;;16.48;63.70
61906;BME280;47863;55.766;37.672;2023-07-31T01:16:51;99093.25;;;16.45;63.89
61906;BME280;47863;55.766;37.672;2023-07-31T01:19:18;99064.22;;;16.27;64.13
61906;BME280;47863;55.766;37.672;2023-07-31T01:22:12;99095.56;;;16.41;64.19
61906;BME280;47863;55.766;37.672;2023-07-31T01:25:48;99094.09;;;16.39;64.19
61906;BME280;47863;55.766;37.672;2023-07-31T01:31:09;99087.47;;;16.35;64.00
61906;BME280;47863;55.766;37.672;2023-07-31T01:33:36;99092.88;;;16.35;64.08
61906;BME280;47863;55.766;37.672;2023-07-31T01:36:03;99100.97;;;16.35;64.39
61906;BME280;47863;55.766;37.672;2023-07-31T01:38:29;99096.84;;;16.32;64.53
61906;BME280;47863;55.766;37.672;2023-07-31T01:40:54;99098.72;;;16.32;64.29
61906;BME280;47863;55.766;37.672;2023-07-31T01:43:20;99096.84;;;16.32;64.27
61906;BME280;47863;55.766;37.672;2023-07-31T01:45:46;99097.66;;;16.33;64.21
61906;BME280;47863;55.766;37.672;2023-07-31T01:48:11;99087.72;;;16.26;64.39
61906;BME280;47863;55.766;37.672;2023-07-31T01:50:37;99103.31;;;16.31;64.63
61906;BME280;47863;55.766;37.672;2023-07-31T01:53:02;99088.38;;;16.22;64.68
61906;BME280;47863;55.766;37.672;2023-07-31T01:55:28;99077.78;;;16.20;64.55
61906;BME280;47863;55.766;37.672;2023-07-31T01:57:53;99094.34;;;16.31;64.57
61906;BME280;47863;55.766;37.672;2023-07-31T02:00:19;99094.59;;;16.29;64.79
61906;BME280;47863;55.766;37.672;2023-07-31T02:02:45;99076.75;;;16.15;64.91
61906;BME280;47863;55.766;37.672;2023-07-31T02:05:10;99103.31;;;16.31;64.93
61906;BME280;47863;55.766;37.672;2023-07-31T02:07:36;99103.91;;;16.33;64.93
61906;BME280;47863;55.766;37.672;2023-07-31T02:10:01;99108.25;;;16.34;65.29
61906;BME280;47863;55.766;37.672;2023-07-31T02:12:32;99106.38;;;16.35;64.92
61906;BME280;47863;55.766;37.672;2023-07-31T02:14:59;99100.75;;;16.36;65.09
61906;BME280;47863;55.766;37.672;2023-07-31T02:17:25;99102.44;;;16.37;65.24
61906;BME280;47863;55.766;37.672;2023-07-31T02:20:11;99104.91;;;16.39;65.13
61906;BME280;47863;55.766;37.672;2023-07-31T02:22:36;99102.19;;;16.39;65.19
61906;BME280;47863;55.766;37.672;2023-07-31T02:25:02;99102.81;;;16.41;65.01
61906;BME280;47863;55.766;37.672;2023-07-31T02:27:30;99104.50;;;16.42;65.08
61906;BME280;47863;55.766;37.672;2023-07-31T02:29:56;99101.56;;;16.43;65.00
61906;BME280;47863;55.766;37.672;2023-07-31T02:32:21;99097.81;;;16.44;64.95
61906;BME280;47863;55.766;37.672;2023-07-31T02:34:48;99078.53;;;16.34;65.31
61906;BME280;47863;55.766;37.672;2023-07-31T02:37:13;99101.53;;;16.50;65.27
61906;BME280;47863;55.766;37.672;2023-07-31T02:39:39;99076.91;;;16.33;65.17
61906;BME280;47863;55.766;37.672;2023-07-31T02:42:05;99091.97;;;16.48;65.12
61906;BME280;47863;55.766;37.672;2023-07-31T02:44:30;99087.41;;;16.48;65.39
61906;BME280;47863;55.766;37.672;2023-07-31T02:46:56;99086.78;;;16.46;65.41
61906;BME280;47863;55.766;37.672;2023-07-31T02:49:21;99025.22;;;16.16;65.41
61906;BME280;47863;55.766;37.672;2023-07-31T02:51:47;99082.78;;;16.55;65.41
61906;BME280;47863;55.766;37.672;2023-07-31T02:54:12;99070.97;;;16.50;65.35
61906;BME280;47863;55.766;37.672;2023-07-31T02:56:38;99097.28;;;16.68;65.38
61906;BME280;47863;55.766;37.672;2023-07-31T02:59:03;99075.69;;;16.61;65.17
61906;BME280;47863;55.766;37.672;2023-07-31T03:01:29;99092.66;;;16.75;65.13
61906;BME280;47863;55.766;37.672;2023-07-31T03:03:55;99099.28;;;16.79;65.05
61906;BME280;47863;55.766;37.672;2023-07-31T03:06:20;99104.44;;;16.80;65.01
61906;BME280;47863;55.766;37.672;2023-07-31T03:08:46;99095.72;;;16.85;65.23
61906;BME280;47863;55.766;37.672;2023-07-31T03:11:11;99073.13;;;16.73;65.11
61906;BME280;47863;55.766;37.672;2023-07-31T03:13:37;99096.28;;;16.94;65.07
61906;BME280;47863;55.766;37.672;2023-07-31T03:16:03;99100.44;;;16.96;65.08
61906;BME280;47863;55.766;37.672;2023-07-31T03:18:28;99071.38;;;16.85;64.96
61906;BME280;47863;55.766;37.672;2023-07-31T03:20:54;99096.19;;;17.07;64.77
61906;BME280;47863;55.766;37.672;2023-07-31T03:23:19;99101.78;;;17.12;64.67
61906;BME280;47863;55.766;37.672;2023-07-31T03:26:02;99095.69;;;17.17;64.66
61906;BME280;47863;55.766;37.672;2023-07-31T03:28:31;99050.09;;;16.95;64.55
61906;BME280;47863;55.766;37.672;2023-07-31T03:30:56;99104.34;;;17.25;64.75
61906;BME280;47863;55.766;37.672;2023-07-31T03:33:22;99073.66;;;17.13;64.61
61906;BME280;47863;55.766;37.672;2023-07-31T03:35:48;99045.22;;;17.04;64.41
61906;BME280;47863;55.766;37.672;2023-07-31T03:38:13;99088.78;;;17.46;64.71
61906;BME280;47863;55.766;37.672;2023-07-31T03:40:39;99095.78;;;17.54;64.13
61906;BME280;47863;55.766;37.672;2023-07-31T03:43:05;99079.28;;;17.55;64.15
61906;BME280;47863;55.766;37.672;2023-07-31T03:45:31;99065.41;;;17.52;64.20
61906;BME280;47863;55.766;37.672;2023-07-31T03:47:56;99088.88;;;17.76;63.96
61906;BME280;47863;55.766;37.672;2023-07-31T03:50:22;99094.63;;;17.87;63.68
61906;BME280;47863;55.766;37.672;2023-07-31T03:52:48;99094.91;;;17.97;63.45
61906;BME280;47863;55.766;37.672;2023-07-31T03:55:13;99092.75;;;18.06;63.35
61906;BME280;47863;55.766;37.672;2023-07-31T03:57:39;99087.72;;;18.09;63.22
61906;BME280;47863;55.766;37.672;2023-07-31T04:00:05;99089.41;;;18.22;63.17
61906;BME280;47863;55.766;37.672;2023-07-31T04:02:31;99082.84;;;18.30;63.20
61906;BME280;47863;55.766;37.672;2023-07-31T04:04:57;99086.09;;;18.38;62.94
61906;BME280;47863;55.766;37.672;2023-07-31T04:07:22;99087.63;;;18.46;63.01
61906;BME280;47863;55.766;37.672;2023-07-31T04:09:48;99082.56;;;18.50;63.04
61906;BME280;47863;55.766;37.672;2023-07-31T04:12:13;99070.47;;;18.52;62.87
61906;BME280;47863;55.766;37.672;2023-07-31T04:14:39;99070.81;;;18.56;62.72
61906;BME280;47863;55.766;37.672;2023-07-31T04:17:04;99094.06;;;18.82;62.64
61906;BME280;47863;55.766;37.672;2023-07-31T04:19:30;99093.72;;;18.90;62.58
61906;BME280;47863;55.766;37.672;2023-07-31T04:21:55;99092.19;;;18.94;62.42
61906;BME280;47863;55.766;37.672;2023-07-31T04:24:21;99102.00;;;19.07;62.21
61906;BME280;47863;55.766;37.672;2023-07-31T04:26:50;99104.97;;;19.17;62.22
61906;BME280;47863;55.766;37.672;2023-07-31T04:29:16;99109.22;;;19.25;62.06
61906;BME280;47863;55.766;37.672;2023-07-31T04:31:42;99081.97;;;19.20;61.68
61906;BME280;47863;55.766;37.672;2023-07-31T04:34:07;99102.97;;;19.36;62.05
61906;BME280;47863;55.766;37.672;2023-07-31T04:36:33;99116.69;;;19.53;61.85
61906;BME280;47863;55.766;37.672;2023-07-31T04:38:59;99091.66;;;19.51;61.75
61906;BME280;47863;55.766;37.672;2023-07-31T04:41:25;99107.09;;;19.62;61.77
61906;BME280;47863;55.766;37.672;2023-07-31T04:43:51;99109.03;;;19.74;61.40
61906;BME280;47863;55.766;37.672;2023-07-31T04:46:16;99109.75;;;19.81;61.31
61906;BME280;47863;55.766;37.672;2023-07-31T04:48:42;99118.56;;;19.88;61.58
61906;BME280;47863;55.766;37.672;2023-07-31T04:51:08;99096.25;;;19.86;61.18
61906;BME280;47863;55.766;37.672;2023-07-31T04:53:35;99103.09;;;20.00;60.93
61906;BME280;47863;55.766;37.672;2023-07-31T04:56:00;99118.66;;;20.17;60.88
61906;BME280;47863;55.766;37.672;2023-07-31T04:58:26;99110.25;;;20.18;60.84
61906;BME280;47863;55.766;37.672;2023-07-31T05:00:52;99116.72;;;20.29;60.50
61906;BME280;47863;55.766;37.672;2023-07-31T05:03:18;99121.31;;;20.40;60.34
61906;BME280;47863;55.766;37.672;2023-07-31T05:05:43;99123.16;;;20.52;59.89
61906;BME280;47863;55.766;37.672;2023-07-31T05:08:09;99117.69;;;20.64;59.68
61906;BME280;47863;55.766;37.672;2023-07-31T05:10:34;99125.47;;;20.72;59.84
61906;BME280;47863;55.766;37.672;2023-07-31T05:13:00;99120.94;;;20.77;59.71
61906;BME280;47863;55.766;37.672;2023-07-31T05:15:25;99128.38;;;20.82;59.30
61906;BME280;47863;55.766;37.672;2023-07-31T05:17:51;99086.53;;;20.71;59.15
61906;BME280;47863;55.766;37.672;2023-07-31T05:20:17;99118.09;;;21.01;59.00
61906;BME280;47863;55.766;37.672;2023-07-31T05:22:42;99104.47;;;21.18;58.53
61906;BME280;47863;55.766;37.672;2023-07-31T05:25:08;99113.09;;;21.61;57.80
61906;BME280;47863;55.766;37.672;2023-07-31T05:27:34;99117.50;;;22.06;57.21
61906;BME280;47863;55.766;37.672;2023-07-31T05:29:59;99113.88;;;22.66;56.72
61906;BME280;47863;55.766;37.672;2023-07-31T05:32:25;99114.63;;;23.11;56.50
61906;BME280;47863;55.766;37.672;2023-07-31T05:34:51;99099.94;;;23.22;55.92
61906;BME280;47863;55.766;37.672;2023-07-31T05:37:18;99108.44;;;23.26;56.28
61906;BME280;47863;55.766;37.672;2023-07-31T05:39:44;99116.56;;;23.15;55.33
61906;BME280;47863;55.766;37.672;2023-07-31T05:42:09;99100.53;;;22.97;55.42
61906;BME280;47863;55.766;37.672;2023-07-31T05:44:35;99118.69;;;23.08;55.87
61906;BME280;47863;55.766;37.672;2023-07-31T05:47:01;99103.53;;;23.23;54.89
61906;BME280;47863;55.766;37.672;2023-07-31T05:49:26;99128.69;;;23.62;54.67
61906;BME280;47863;55.766;37.672;2023-07-31T05:51:52;99100.78;;;23.60;53.65
61906;BME280;47863;55.766;37.672;2023-07-31T05:54:17;99116.09;;;23.61;53.92
61906;BME280;47863;55.766;37.672;2023-07-31T05:56:43;99100.44;;;23.51;54.25
61906;BME280;47863;55.766;37.672;2023-07-31T05:59:11;99117.94;;;23.50;54.24
61906;BME280;47863;55.766;37.672;2023-07-31T06:01:37;99111.00;;;23.38;54.27
61906;BME280;47863;55.766;37.672;2023-07-31T06:04:03;99118.13;;;23.39;54.68
61906;BME280;47863;55.766;37.672;2023-07-31T06:06:29;99121.13;;;23.37;53.88
61906;BME280;47863;55.766;37.672;2023-07-31T06:08:54;99126.59;;;23.37;53.19
61906;BME280;47863;55.766;37.672;2023-07-31T06:11:21;99115.97;;;23.41;53.21
61906;BME280;47863;55.766;37.672;2023-07-31T06:13:47;99095.78;;;23.47;53.24
61906;BME280;47863;55.766;37.672;2023-07-31T06:16:15;99090.63;;;23.55;52.85
61906;BME280;47863;55.766;37.672;2023-07-31T06:18:41;99121.75;;;23.87;52.50
61906;BME280;47863;55.766;37.672;2023-07-31T06:21:07;99109.91;;;23.76;52.77
61906;BME280;47863;55.766;37.672;2023-07-31T06:23:33;99132.38;;;23.83;53.12
61906;BME280;47863;55.766;37.672;2023-07-31T06:25:59;99123.63;;;23.81;51.83
61906;BME280;47863;55.766;37.672;2023-07-31T06:28:28;99123.03;;;23.74;50.67
61906;BME280;47863;55.766;37.672;2023-07-31T06:30:57;99119.25;;;23.80;51.29
61906;BME280;47863;55.766;37.672;2023-07-31T06:33:23;99113.53;;;23.82;51.11
61906;BME280;47863;55.766;37.672;2023-07-31T06:35:49;99088.16;;;23.91;50.88
61906;BME280;47863;55.766;37.672;2023-07-31T06:38:14;99126.38;;;24.39;50.60
61906;BME280;47863;55.766;37.672;2023-07-31T06:40:40;99137.16;;;24.66;50.15
61906;BME280;47863;55.766;37.672;2023-07-31T06:43:06;99134.75;;;24.96;49.53
61906;BME280;47863;55.766;37.672;2023-07-31T06:45:37;99137.53;;;25.16;49.46
61906;BME280;47863;55.766;37.672;2023-07-31T06:48:03;99130.97;;;25.43;49.33
61906;BME280;47863;55.766;37.672;2023-07-31T06:50:32;99131.19;;;25.98;48.32
61906;BME280;47863;55.766;37.672;2023-07-31T06:52:58;99111.19;;;26.62;47.59
61906;BME280;47863;55.766;37.672;2023-07-31T06:55:24;99133.13;;;27.07;46.88
61906;BME280;47863;55.766;37.672;2023-07-31T06:57:51;99123.41;;;27.25;46.51
61906;BME280;47863;55.766;37.672;2023-07-31T07:00:19;99139.63;;;27.56;46.19
61906;BME280;47863;55.766;37.672;2023-07-31T07:02:45;99107.78;;;28.27;45.04
61906;BME280;47863;55.766;37.672;2023-07-31T07:05:13;99116.34;;;29.58;43.72
61906;BME280;47863;55.766;37.672;2023-07-31T07:07:41;99133.69;;;31.20;40.15
61906;BME280;47863;55.766;37.672;2023-07-31T07:10:08;99113.41;;;32.85;38.50
61906;BME280;47863;55.766;37.672;2023-07-31T07:12:34;99132.34;;;34.68;37.23
61906;BME280;47863;55.766;37.672;2023-07-31T07:15:00;99140.88;;;36.29;35.80
61906;BME280;47863;55.766;37.672;2023-07-31T07:17:27;99148.06;;;37.48;33.90
61906;BME280;47863;55.766;37.672;2023-07-31T07:19:53;99148.28;;;38.67;33.34
61906;BME280;47863;55.766;37.672;2023-07-31T07:22:19;99141.66;;;39.96;32.16
61906;BME280;47863;55.766;37.672;2023-07-31T07:24:44;99146.09;;;41.03;31.37
61906;BME280;47863;55.766;37.672;2023-07-31T07:27:10;99133.06;;;42.00;29.46
61906;BME280;47863;55.766;37.672;2023-07-31T07:29:37;99147.09;;;43.08;27.39
61906;BME280;47863;55.766;37.672;2023-07-31T07:32:04;99143.28;;;43.81;27.39
61906;BME280;47863;55.766;37.672;2023-07-31T07:34:30;99133.59;;;44.35;26.01
61906;BME280;47863;55.766;37.672;2023-07-31T07:36:55;99131.47;;;44.97;25.57
61906;BME280;47863;55.766;37.672;2023-07-31T07:39:21;99146.63;;;45.39;23.53
61906;BME280;47863;55.766;37.672;2023-07-31T07:41:47;99148.66;;;45.35;23.29
61906;BME280;47863;55.766;37.672;2023-07-31T07:44:13;99138.91;;;45.47;22.54
61906;BME280;47863;55.766;37.672;2023-07-31T07:46:39;99149.41;;;46.02;21.93
61906;BME280;47863;55.766;37.672;2023-07-31T07:49:05;99147.06;;;46.42;21.47
61906;BME280;47863;55.766;37.672;2023-07-31T07:51:31;99130.53;;;46.75;19.65
61906;BME280;47863;55.766;37.672;2023-07-31T07:54:00;99160.63;;;46.62;18.52
61906;BME280;47863;55.766;37.672;2023-07-31T07:56:26;99134.75;;;45.66;19.66
61906;BME280;47863;55.766;37.672;2023-07-31T07:58:53;99140.63;;;45.23;19.49
61906;BME280;47863;55.766;37.672;2023-07-31T08:01:19;99154.81;;;45.86;19.41
61906;BME280;47863;55.766;37.672;2023-07-31T08:03:45;99158.78;;;46.44;18.44
61906;BME280;47863;55.766;37.672;2023-07-31T08:06:11;99154.19;;;46.96;17.92
61906;BME280;47863;55.766;37.672;2023-07-31T08:08:37;99144.47;;;47.27;17.31
61906;BME280;47863;55.766;37.672;2023-07-31T08:11:03;99160.47;;;47.72;17.18
61906;BME280;47863;55.766;37.672;2023-07-31T08:13:28;99158.78;;;48.25;16.81
61906;BME280;47863;55.766;37.672;2023-07-31T08:15:54;99155.81;;;48.33;16.37
61906;BME280;47863;55.766;37.672;2023-07-31T08:18:20;99146.69;;;48.45;15.81
61906;BME280;47863;55.766;37.672;2023-07-31T08:20:45;99158.53;;;48.40;15.87
61906;BME280;47863;55.766;37.672;2023-07-31T08:23:11;99153.44;;;48.75;15.46
61906;BME280;47863;55.766;37.672;2023-07-31T08:25:37;99138.63;;;49.03;15.38
61906;BME280;47863;55.766;37.672;2023-07-31T08:28:04;99161.00;;;49.58;14.76
61906;BME280;47863;55.766;37.672;2023-07-31T08:30:30;99137.47;;;50.07;14.26
61906;BME280;47863;55.766;37.672;2023-07-31T08:32:56;99148.13;;;50.35;14.31
61906;BME280;47863;55.766;37.672;2023-07-31T08:35:22;99146.38;;;50.25;14.17
61906;BME280;47863;55.766;37.672;2023-07-31T08:37:48;99159.63;;;48.46;14.95
61906;BME280;47863;55.766;37.672;2023-07-31T08:40:13;99141.16;;;45.74;16.34
61906;BME280;47863;55.766;37.672;2023-07-31T08:42:44;99155.47;;;45.45;15.93
61906;BME280;47863;55.766;37.672;2023-07-31T08:45:13;99147.25;;;46.21;15.72
61906;BME280;47863;55.766;37.672;2023-07-31T08:47:40;99161.94;;;46.54;15.27
61906;BME280;47863;55.766;37.672;2023-07-31T08:50:07;99163.66;;;47.16;14.54
61906;BME280;47863;55.766;37.672;2023-07-31T08:52:33;99149.34;;;47.27;14.88
61906;BME280;47863;55.766;37.672;2023-07-31T08:54:58;99156.16;;;46.19;14.91
61906;BME280;47863;55.766;37.672;2023-07-31T08:57:24;99162.25;;;44.56;16.47
61906;BME280;47863;55.766;37.672;2023-07-31T08:59:50;99161.13;;;42.38;17.44
61906;BME280;47863;55.766;37.672;2023-07-31T09:02:17;99164.53;;;41.69;17.43
61906;BME280;47863;55.766;37.672;2023-07-31T09:04:44;99159.47;;;42.89;17.03
61906;BME280;47863;55.766;37.672;2023-07-31T09:07:10;99161.13;;;42.97;16.76
61906;BME280;47863;55.766;37.672;2023-07-31T09:09:38;99144.41;;;43.54;15.95
61906;BME280;47863;55.766;37.672;2023-07-31T09:12:05;99158.59;;;43.69;16.36
61906;BME280;47863;55.766;37.672;2023-07-31T09:14:32;99149.75;;;44.17;15.75
61906;BME280;47863;55.766;37.672;2023-07-31T09:16:58;99138.38;;;45.63;15.12
61906;BME280;47863;55.766;37.672;2023-07-31T09:19:35;99158.59;;;47.31;13.73
61906;BME280;47863;55.766;37.672;2023-07-31T09:22:07;99162.63;;;48.39;13.57
61906;BME280;47863;55.766;37.672;2023-07-31T09:24:34;99114.31;;;48.82;13.55
61906;BME280;47863;55.766;37.672;2023-07-31T09:27:00;99151.28;;;49.75;12.98
61906;BME280;47863;55.766;37.672;2023-07-31T09:29:27;99164.44;;;49.86;12.99
61906;BME280;47863;55.766;37.672;2023-07-31T09:31:54;99163.41;;;47.92;14.11
61906;BME280;47863;55.766;37.672;2023-07-31T09:34:28;99155.16;;;46.40;14.07
61906;BME280;47863;55.766;37.672;2023-07-31T09:36:56;99172.56;;;47.15;14.26
61906;BME280;47863;55.766;37.672;2023-07-31T09:39:22;99160.47;;;47.72;12.99
61906;BME280;47863;55.766;37.672;2023-07-31T09:41:54;99134.28;;;48.12;11.97
61906;BME280;47863;55.766;37.672;2023-07-31T09:44:19;99119.75;;;48.53;12.21
61906;BME280;47863;55.766;37.672;2023-07-31T09:46:45;99146.41;;;48.99;12.00
61906;BME280;47863;55.766;37.672;2023-07-31T09:49:12;99147.25;;;49.36;12.25
61906;BME280;47863;55.766;37.672;2023-07-31T09:51:39;99149.13;;;48.67;12.16
61906;BME280;47863;55.766;37.672;2023-07-31T09:54:12;99156.84;;;47.41;12.79
61906;BME280;47863;55.766;37.672;2023-07-31T09:56:48;99145.72;;;44.29;13.87
61906;BME280;47863;55.766;37.672;2023-07-31T09:59:16;99159.38;;;41.74;15.69
61906;BME280;47863;55.766;37.672;2023-07-31T10:01:43;99133.81;;;40.55;16.30
61906;BME280;47863;55.766;37.672;2023-07-31T10:04:10;99135.75;;;40.51;16.04
61906;BME280;47863;55.766;37.672;2023-07-31T10:06:37;99143.91;;;40.90;15.89
61906;BME280;47863;55.766;37.672;2023-07-31T10:09:09;99157.94;;;42.39;15.19
61906;BME280;47863;55.766;37.672;2023-07-31T10:11:46;99155.41;;;44.17;13.93
61906;BME280;47863;55.766;37.672;2023-07-31T10:14:19;99155.75;;;45.61;13.65
61906;BME280;47863;55.766;37.672;2023-07-31T10:16:45;99147.50;;;45.88;13.49
61906;BME280;47863;55.766;37.672;2023-07-31T10:19:10;99155.31;;;44.82;14.05
61906;BME280;47863;55.766;37.672;2023-07-31T10:21:37;99153.78;;;44.27;14.58
61906;BME280;47863;55.766;37.672;2023-07-31T10:24:04;99159.97;;;43.02;15.46
61906;BME280;47863;55.766;37.672;2023-07-31T10:26:31;99132.94;;;41.11;16.10
61906;BME280;47863;55.766;37.672;2023-07-31T10:28:58;99134.03;;;39.31;17.32
61906;BME280;47863;55.766;37.672;2023-07-31T10:31:24;99160.94;;;37.97;18.13
61906;BME280;47863;55.766;37.672;2023-07-31T10:33:52;99130.75;;;36.62;18.97
61906;BME280;47863;55.766;37.672;2023-07-31T10:36:19;99150.94;;;35.72;19.59
61906;BME280;47863;55.766;37.672;2023-07-31T10:38:46;99132.44;;;34.71;20.04
61906;BME280;47863;55.766;37.672;2023-07-31T10:41:14;99120.78;;;33.89;20.22
61906;BME280;47863;55.766;37.672;2023-07-31T10:43:40;99154.84;;;33.42;20.80
61906;BME280;47863;55.766;37.672;2023-07-31T10:46:07;99148.00;;;32.78;21.45
61906;BME280;47863;55.766;37.672;2023-07-31T10:48:34;99124.81;;;32.17;21.67
61906;BME280;47863;55.766;37.672;2023-07-31T10:51:08;99139.31;;;31.82;22.34
61906;BME280;47863;55.766;37.672;2023-07-31T10:53:34;99146.41;;;31.66;22.10
61906;BME280;47863;55.766;37.672;2023-07-31T10:56:05;99151.56;;;31.81;22.42
61906;BME280;47863;55.766;37.672;2023-07-31T10:58:32;99139.72;;;31.98;22.30
61906;BME280;47863;55.766;37.672;2023-07-31T11:01:00;99148.50;;;32.32;21.99
61906;BME280;47863;55.766;37.672;2023-07-31T11:03:27;99126.63;;;33.23;21.64
61906;BME280;47863;55.766;37.672;2023-07-31T11:06:02;99140.88;;;34.33;21.59
61906;BME280;47863;55.766;37.672;2023-07-31T11:08:32;99146.09;;;34.85;20.89
61906;BME280;47863;55.766;37.672;2023-07-31T11:13:32;99136.66;;;34.48;21.68
61906;BME280;47863;55.766;37.672;2023-07-31T11:15:58;99147.13;;;34.12;21.46
61906;BME280;47863;55.766;37.672;2023-07-31T11:18:25;99135.38;;;33.51;21.99
61906;BME280;47863;55.766;37.672;2023-07-31T11:20:53;99129.56;;;33.09;22.39
61906;BME280;47863;55.766;37.672;2023-07-31T11:23:21;99135.28;;;32.86;22.90
61906;BME280;47863;55.766;37.672;2023-07-31T11:25:46;99140.97;;;32.98;22.80
61906;BME280;47863;55.766;37.672;2023-07-31T11:28:13;99116.34;;;33.23;22.73
61906;BME280;47863;55.766;37.672;2023-07-31T11:30:40;99130.56;;;33.95;22.29
61906;BME280;47863;55.766;37.672;2023-07-31T11:33:07;99127.38;;;34.94;21.22
61906;BME280;47863;55.766;37.672;2023-07-31T11:35:35;99122.88;;;36.02;20.59
61906;BME280;47863;55.766;37.672;2023-07-31T11:38:02;99116.56;;;36.55;20.53
61906;BME280;47863;55.766;37.672;2023-07-31T11:40:28;99126.50;;;36.92;20.45
61906;BME280;47863;55.766;37.672;2023-07-31T11:42:58;99142.06;;;37.34;20.23
61906;BME280;47863;55.766;37.672;2023-07-31T11:45:28;99149.13;;;37.72;20.13
61906;BME280;47863;55.766;37.672;2023-07-31T11:47:56;99137.50;;;37.86;19.69
61906;BME280;47863;55.766;37.672;2023-07-31T11:50:24;99150.28;;;37.87;19.90
61906;BME280;47863;55.766;37.672;2023-07-31T11:53:00;99093.13;;;37.24;19.88
61906;BME280;47863;55.766;37.672;2023-07-31T11:55:27;99132.66;;;37.26;20.40
61906;BME280;47863;55.766;37.672;2023-07-31T11:57:56;99148.97;;;36.59;20.42
61906;BME280;47863;55.766;37.672;2023-07-31T12:00:23;99152.66;;;35.44;21.21
61906;BME280;47863;55.766;37.672;2023-07-31T12:02:50;99147.22;;;34.63;21.42
61906;BME280;47863;55.766;37.672;2023-07-31T12:05:17;99124.91;;;34.12;22.08
61906;BME280;47863;55.766;37.672;2023-07-31T12:08:03;99139.16;;;33.64;22.56
61906;BME280;47863;55.766;37.672;2023-07-31T12:10:33;99150.75;;;32.78;22.90
61906;BME280;47863;55.766;37.672;2023-07-31T12:17:57;99148.03;;;30.86;24.84
61906;BME280;47863;55.766;37.672;2023-07-31T12:20:23;99114.44;;;30.14;25.00
61906;BME280;47863;55.766;37.672;2023-07-31T12:22:48;99138.06;;;29.93;25.32
61906;BME280;47863;55.766;37.672;2023-07-31T12:25:17;99131.00;;;29.54;25.87
61906;BME280;47863;55.766;37.672;2023-07-31T12:27:45;99155.00;;;29.20;26.11
61906;BME280;47863;55.766;37.672;2023-07-31T12:30:31;99165.88;;;28.74;26.69
61906;BME280;47863;55.766;37.672;2023-07-31T12:33:03;99160.88;;;28.33;27.04
61906;BME280;47863;55.766;37.672;2023-07-31T12:35:36;99154.13;;;27.96;27.67
61906;BME280;47863;55.766;37.672;2023-07-31T12:38:02;99134.09;;;27.61;27.95
61906;BME280;47863;55.766;37.672;2023-07-31T12:40:28;99151.47;;;27.56;28.29
61906;BME280;47863;55.766;37.672;2023-07-31T12:42:53;99153.00;;;27.38;28.27
61906;BME280;47863;55.766;37.672;2023-07-31T12:45:22;99163.19;;;27.33;28.78
61906;BME280;47863;55.766;37.672;2023-07-31T12:47:48;99156.94;;;27.22;29.81
61906;BME280;47863;55.766;37.672;2023-07-31T12:50:14;99153.69;;;27.15;30.34
61906;BME280;47863;55.766;37.672;2023-07-31T12:52:40;99154.81;;;27.14;29.97
61906;BME280;47863;55.766;37.672;2023-07-31T12:55:05;99099.25;;;26.77;30.18
61906;BME280;47863;55.766;37.672;2023-07-31T12:57:31;99162.44;;;27.22;30.04
61906;BME280;47863;55.766;37.672;2023-07-31T12:59:57;99106.84;;;26.96;29.78